createdAt,value
2018-05-29T00:02:19.538Z,20.75
2018-05-29T00:05:24.413Z,20.72
2018-05-29T00:08:29.982Z,20.69
2018-05-29T00:11:35.670Z,20.67
2018-05-29T00:14:49.861Z,20.63
2018-05-29T00:17:55.070Z,20.61
2018-05-29T00:21:00.286Z,20.58
2018-05-29T00:24:05.499Z,20.57
2018-05-29T00:27:11.229Z,20.55
2018-05-29T00:30:17.368Z,20.53
2018-05-29T00:33:23.357Z,20.51
2018-05-29T00:36:28.610Z,20.49
2018-05-29T00:39:33.517Z,20.48
2018-05-29T00:42:38.732Z,20.47
2018-05-29T00:45:43.921Z,20.45
2018-05-29T00:48:49.218Z,20.43
2018-05-29T00:51:54.409Z,20.43
2018-05-29T00:55:11.495Z,20.41
2018-05-29T00:58:18.152Z,20.40
2018-05-29T01:01:23.801Z,20.37
2018-05-29T01:04:29.003Z,20.37
2018-05-29T01:07:34.843Z,20.35
2018-05-29T01:10:40.041Z,20.33
2018-05-29T01:13:44.990Z,20.31
2018-05-29T01:16:50.268Z,20.29
2018-05-29T01:19:55.629Z,20.27
2018-05-29T01:23:01.749Z,20.25
2018-05-29T01:26:07.374Z,20.22
2018-05-29T01:29:13.259Z,20.20
2018-05-29T01:32:18.173Z,20.17
2018-05-29T01:35:23.406Z,20.14
2018-05-29T01:38:28.605Z,20.11
2018-05-29T01:41:33.860Z,20.08
2018-05-29T01:44:39.225Z,20.05
2018-05-29T01:47:45.347Z,20.01
2018-05-29T01:50:50.273Z,19.98
2018-05-29T01:53:55.680Z,19.93
2018-05-29T01:57:00.622Z,19.90
2018-05-29T02:00:06.097Z,19.85
2018-05-29T02:03:11.932Z,19.83
2018-05-29T02:06:16.867Z,19.78
2018-05-29T02:09:22.870Z,19.75
2018-05-29T02:12:27.896Z,19.71
2018-05-29T02:15:32.825Z,19.68
2018-05-29T02:18:38.775Z,19.64
2018-05-29T02:21:44.029Z,19.61
2018-05-29T02:24:49.936Z,19.57
2018-05-29T02:27:56.384Z,19.54
2018-05-29T02:31:02.120Z,19.51
2018-05-29T02:34:07.311Z,19.48
2018-05-29T02:37:12.524Z,19.44
2018-05-29T02:40:17.767Z,19.41
2018-05-29T02:43:23.998Z,19.36
2018-05-29T02:46:29.720Z,19.32
2018-05-29T02:49:35.544Z,19.29
2018-05-29T02:52:41.158Z,19.25
2018-05-29T02:55:46.567Z,19.22
2018-05-29T02:58:51.485Z,19.19
2018-05-29T03:01:56.833Z,19.15
2018-05-29T03:05:02.332Z,19.12
2018-05-29T03:08:07.262Z,19.09
2018-05-29T03:11:12.617Z,19.06
2018-05-29T03:14:18.259Z,19.01
2018-05-29T03:17:23.456Z,18.98
2018-05-29T03:20:29.591Z,18.96
2018-05-29T03:23:35.623Z,18.94
2018-05-29T03:26:41.453Z,18.93
2018-05-29T03:29:47.106Z,18.91
2018-05-29T03:32:54.141Z,18.89
2018-05-29T03:36:16.856Z,18.88
2018-05-29T03:39:29.877Z,18.85
2018-05-29T03:42:35.134Z,18.84
2018-05-29T03:45:41.132Z,18.83
2018-05-29T03:48:46.344Z,18.82
2018-05-29T03:51:52.305Z,18.81
2018-05-29T03:54:57.521Z,18.82
2018-05-29T03:58:03.649Z,18.82
2018-05-29T04:01:09.646Z,18.79
2018-05-29T04:04:15.387Z,18.81
2018-05-29T04:07:22.219Z,18.80
2018-05-29T04:10:28.165Z,18.78
2018-05-29T04:13:34.069Z,18.79
2018-05-29T04:16:39.336Z,18.79
2018-05-29T04:19:44.548Z,18.77
2018-05-29T04:22:49.533Z,18.76
2018-05-29T04:25:55.942Z,18.77
2018-05-29T04:29:02.233Z,18.77
2018-05-29T04:32:08.160Z,18.78
2018-05-29T04:35:14.164Z,18.80
2018-05-29T04:38:19.372Z,18.81
2018-05-29T04:41:24.576Z,18.84
2018-05-29T04:44:29.772Z,18.85
2018-05-29T04:47:35.899Z,18.87
2018-05-29T04:50:41.100Z,18.88
2018-05-29T04:53:46.789Z,18.90
2018-05-29T04:56:51.764Z,18.91
2018-05-29T04:59:56.973Z,18.93
2018-05-29T05:03:02.176Z,18.95
2018-05-29T05:06:08.029Z,18.98
2018-05-29T05:09:14.265Z,19.01
2018-05-29T05:12:20.145Z,19.04
2018-05-29T05:15:26.322Z,19.06
2018-05-29T05:18:32.137Z,19.10
2018-05-29T05:21:38.260Z,19.13
2018-05-29T05:24:43.494Z,19.16
2018-05-29T05:27:48.668Z,19.20
2018-05-29T05:30:53.887Z,19.23
2018-05-29T05:33:59.511Z,19.27
2018-05-29T05:37:05.121Z,19.30
2018-05-29T05:40:10.332Z,19.33
2018-05-29T05:46:19.925Z,19.41
2018-05-29T05:49:25.162Z,19.45
2018-05-29T05:52:31.182Z,19.50
2018-05-29T05:55:37.312Z,19.53
2018-05-29T05:58:42.518Z,19.58
2018-05-29T06:01:47.724Z,19.62
2018-05-29T06:04:54.046Z,19.66
2018-05-29T06:07:59.642Z,19.70
2018-05-29T06:11:05.385Z,19.74
2018-05-29T06:14:11.092Z,19.79
2018-05-29T06:17:17.125Z,19.84
2018-05-29T06:20:23.236Z,19.89
2018-05-29T06:23:29.148Z,19.93
2018-05-29T06:26:35.164Z,19.97
2018-05-29T06:29:40.385Z,20.03
2018-05-29T06:32:45.307Z,20.08
2018-05-29T06:35:51.645Z,20.15
2018-05-29T06:38:56.842Z,20.21
2018-05-29T06:42:03.483Z,20.26
2018-05-29T06:45:08.430Z,20.32
2018-05-29T06:48:14.152Z,20.38
2018-05-29T06:51:19.420Z,20.43
2018-05-29T06:54:25.251Z,20.50
2018-05-29T06:57:30.876Z,20.55
2018-05-29T07:00:37.001Z,20.62
2018-05-29T07:03:41.939Z,20.70
2018-05-29T07:06:47.688Z,20.76
2018-05-29T07:09:52.896Z,20.82
2018-05-29T07:12:57.827Z,20.87
2018-05-29T07:16:04.178Z,20.94
2018-05-29T07:19:09.517Z,21.02
2018-05-29T07:22:14.996Z,21.09
2018-05-29T07:25:21.105Z,21.17
2018-05-29T07:28:27.133Z,21.26
2018-05-29T07:31:33.250Z,21.34
2018-05-29T07:34:39.276Z,21.42
2018-05-29T07:37:45.316Z,21.50
2018-05-29T07:40:50.515Z,21.57
2018-05-29T07:43:55.719Z,21.65
2018-05-29T07:47:00.664Z,21.75
2018-05-29T07:50:06.803Z,21.82
2018-05-29T07:53:12.953Z,21.91
2018-05-29T07:56:18.165Z,22.01
2018-05-29T07:59:23.379Z,22.11
2018-05-29T08:02:28.242Z,22.20
2018-05-29T08:05:34.177Z,22.28
2018-05-29T08:08:40.317Z,22.38
2018-05-29T08:11:45.936Z,22.46
2018-05-29T08:14:51.342Z,22.55
2018-05-29T08:17:57.066Z,22.65
2018-05-29T08:21:02.275Z,22.74
2018-05-29T08:24:07.486Z,22.84
2018-05-29T08:27:13.207Z,22.93
2018-05-29T08:30:18.428Z,23.03
2018-05-29T08:33:23.645Z,23.13
2018-05-29T08:36:28.848Z,23.24
2018-05-29T08:39:34.700Z,23.35
2018-05-29T08:42:40.104Z,23.45
2018-05-29T08:45:45.544Z,23.57
2018-05-29T08:48:50.963Z,23.69
2018-05-29T08:51:57.281Z,23.82
2018-05-29T08:55:03.382Z,23.93
2018-05-29T08:58:09.390Z,24.05
2018-05-29T09:01:14.595Z,24.16
2018-05-29T09:04:19.850Z,24.29
2018-05-29T09:07:26.013Z,24.41
2018-05-29T09:10:32.128Z,24.52
2018-05-29T09:13:38.262Z,24.62
2018-05-29T09:16:43.665Z,24.73
2018-05-29T09:19:49.068Z,24.85
2018-05-29T09:22:54.281Z,24.96
2018-05-29T09:25:59.928Z,25.07
2018-05-29T09:29:06.193Z,25.16
2018-05-29T09:32:11.407Z,25.26
2018-05-29T09:35:16.617Z,25.35
2018-05-29T09:38:21.817Z,25.47
2018-05-29T09:41:27.471Z,25.61
2018-05-29T09:44:33.554Z,25.72
2018-05-29T09:47:38.766Z,25.85
2018-05-29T09:50:44.501Z,25.99
2018-05-29T09:53:49.702Z,26.08
2018-05-29T09:56:54.913Z,26.20
2018-05-29T10:00:01.232Z,26.31
2018-05-29T10:03:07.773Z,26.47
2018-05-29T10:06:13.422Z,26.58
2018-05-29T10:09:19.079Z,26.64
2018-05-29T10:12:24.497Z,26.67
2018-05-29T10:15:30.541Z,26.75
2018-05-29T10:18:35.749Z,26.80
2018-05-29T10:21:41.836Z,26.87
2018-05-29T10:24:47.457Z,26.93
2018-05-29T10:27:53.101Z,26.98
2018-05-29T10:30:58.356Z,27.04
2018-05-29T10:34:04.517Z,27.10
2018-05-29T10:37:10.437Z,27.17
2018-05-29T10:40:15.636Z,27.24
2018-05-29T10:43:20.232Z,27.32
2018-05-29T10:46:25.979Z,27.37
2018-05-29T10:49:31.175Z,27.43
2018-05-29T10:52:36.412Z,27.47
2018-05-29T10:55:41.821Z,27.56
2018-05-29T10:58:47.029Z,27.60
2018-05-29T11:01:53.356Z,27.64
2018-05-29T11:04:59.144Z,27.69
2018-05-29T11:08:03.842Z,27.72
2018-05-29T11:11:10.080Z,27.75
2018-05-29T11:14:15.352Z,27.79
2018-05-29T11:17:20.460Z,27.85
2018-05-29T11:20:26.381Z,27.90
2018-05-29T11:23:32.483Z,27.94
2018-05-29T11:26:37.877Z,27.98
2018-05-29T11:29:44.092Z,28.01
2018-05-29T11:32:50.581Z,28.04
2018-05-29T11:35:55.929Z,28.07
2018-05-29T11:39:02.178Z,28.11
2018-05-29T11:42:07.993Z,28.15
2018-05-29T11:45:13.204Z,28.20
2018-05-29T11:48:18.193Z,28.24
2018-05-29T11:51:23.157Z,28.25
2018-05-29T11:54:28.085Z,28.27
2018-05-29T11:57:33.923Z,28.29
2018-05-29T12:00:40.102Z,28.32
2018-05-29T12:03:46.153Z,28.38
2018-05-29T12:06:51.795Z,28.41
2018-05-29T12:09:57.820Z,28.44
2018-05-29T12:13:03.568Z,28.47
2018-05-29T12:16:09.666Z,28.49
2018-05-29T12:19:15.283Z,28.56
2018-05-29T12:22:20.526Z,28.61
2018-05-29T12:25:26.824Z,28.66
2018-05-29T12:28:32.959Z,28.67
2018-05-29T12:31:39.067Z,28.70
2018-05-29T12:34:45.068Z,28.73
2018-05-29T12:37:51.196Z,28.77
2018-05-29T12:40:57.312Z,28.80
2018-05-29T12:44:03.344Z,28.86
2018-05-29T12:47:09.029Z,28.92
2018-05-29T12:50:14.773Z,28.95
2018-05-29T12:53:20.039Z,28.98
2018-05-29T12:56:27.317Z,29.03
2018-05-29T12:59:33.147Z,29.05
2018-05-29T13:02:39.475Z,29.07
2018-05-29T13:05:45.137Z,29.13
2018-05-29T13:08:50.008Z,29.17
2018-05-29T13:11:55.848Z,29.20
2018-05-29T13:15:01.189Z,29.22
2018-05-29T13:18:06.908Z,29.27
2018-05-29T13:21:12.248Z,29.29
2018-05-29T13:24:17.451Z,29.34
2018-05-29T13:27:24.457Z,29.39
2018-05-29T13:30:29.390Z,29.40
2018-05-29T13:33:35.004Z,29.44
2018-05-29T13:36:40.849Z,29.47
2018-05-29T13:39:46.742Z,29.52
2018-05-29T13:42:52.860Z,29.57
2018-05-29T13:45:58.424Z,29.62
2018-05-29T13:49:03.640Z,29.65
2018-05-29T13:52:08.976Z,29.64
2018-05-29T13:55:13.903Z,29.66
2018-05-29T13:58:20.448Z,29.69
2018-05-29T14:01:26.693Z,29.69
2018-05-29T14:04:32.076Z,29.74
2018-05-29T14:07:37.265Z,29.77
2018-05-29T14:10:42.188Z,29.78
2018-05-29T14:13:48.734Z,29.82
2018-05-29T14:16:54.118Z,29.83
2018-05-29T14:19:59.741Z,29.85
2018-05-29T14:23:04.779Z,29.88
2018-05-29T14:26:09.727Z,29.91
2018-05-29T14:29:15.188Z,29.91
2018-05-29T14:32:21.329Z,29.94
2018-05-29T14:35:27.272Z,29.97
2018-05-29T14:38:31.994Z,29.99
2018-05-29T14:41:37.067Z,30.02
2018-05-29T14:44:42.406Z,30.04
2018-05-29T14:47:47.328Z,30.05
2018-05-29T14:50:52.268Z,30.07
2018-05-29T14:53:57.394Z,30.08
2018-05-29T14:57:02.946Z,30.09
2018-05-29T15:00:08.863Z,30.08
2018-05-29T15:03:14.728Z,30.06
2018-05-29T15:06:20.114Z,30.03
2018-05-29T15:09:25.006Z,30.03
2018-05-29T15:12:30.468Z,30.00
2018-05-29T15:15:35.453Z,30.01
2018-05-29T15:18:40.985Z,29.99
2018-05-29T15:21:46.450Z,29.97
2018-05-29T15:24:52.348Z,29.98
2018-05-29T15:27:58.477Z,29.96
2018-05-29T15:31:04.301Z,29.94
2018-05-29T15:34:10.549Z,29.95
2018-05-29T15:37:16.780Z,29.96
2018-05-29T15:40:23.433Z,29.98
2018-05-29T15:43:28.965Z,29.97
2018-05-29T15:46:33.936Z,29.96
2018-05-29T15:49:39.420Z,29.95
2018-05-29T15:52:45.253Z,29.94
2018-05-29T15:55:50.271Z,29.94
2018-05-29T15:58:55.188Z,29.93
2018-05-29T16:02:00.520Z,29.90
2018-05-29T16:05:05.149Z,29.87
2018-05-29T16:08:10.184Z,29.82
2018-05-29T16:11:15.153Z,29.77
2018-05-29T16:14:20.317Z,29.72
2018-05-29T16:17:25.680Z,29.68
2018-05-29T16:20:30.613Z,29.64
2018-05-29T16:23:36.344Z,29.58
2018-05-29T16:26:40.723Z,29.55
2018-05-29T16:29:46.750Z,29.47
2018-05-29T16:32:51.690Z,29.43
2018-05-29T16:35:56.944Z,29.36
2018-05-29T16:39:02.178Z,29.30
2018-05-29T16:42:07.714Z,29.25
2018-05-29T16:45:12.345Z,29.18
2018-05-29T16:48:16.965Z,29.14
2018-05-29T16:51:21.900Z,29.07
2018-05-29T16:54:27.440Z,29.02
2018-05-29T16:57:32.401Z,28.97
2018-05-29T17:00:37.328Z,28.90
2018-05-29T17:03:43.603Z,28.83
2018-05-29T17:06:49.552Z,28.75
2018-05-29T17:09:56.010Z,28.68
2018-05-29T17:13:01.345Z,28.62
2018-05-29T17:16:06.300Z,28.54
2018-05-29T17:19:12.261Z,28.48
2018-05-29T17:22:17.925Z,28.40
2018-05-29T17:25:22.856Z,28.32
2018-05-29T17:28:28.390Z,28.23
2018-05-29T17:31:33.306Z,28.15
2018-05-29T17:34:38.256Z,28.06
2018-05-29T17:37:44.028Z,27.97
2018-05-29T17:40:48.987Z,27.89
2018-05-29T17:43:54.413Z,27.80
2018-05-29T17:47:01.041Z,27.72
2018-05-29T17:50:05.635Z,27.65
2018-05-29T17:53:11.397Z,27.55
2018-05-29T17:56:17.378Z,27.46
2018-05-29T17:59:22.825Z,27.39
2018-05-29T18:02:27.769Z,27.30
2018-05-29T18:05:33.600Z,27.21
2018-05-29T18:08:38.530Z,27.14
2018-05-29T18:11:44.377Z,27.06
2018-05-29T18:14:49.718Z,26.99
2018-05-29T18:17:54.639Z,26.92
2018-05-29T18:20:59.575Z,26.85
2018-05-29T18:24:05.013Z,26.77
2018-05-29T18:27:09.932Z,26.69
2018-05-29T18:30:16.370Z,26.60
2018-05-29T18:33:21.737Z,26.52
2018-05-29T18:36:26.704Z,26.43
2018-05-29T18:39:32.524Z,26.35
2018-05-29T18:42:37.484Z,26.26
2018-05-29T18:45:42.414Z,26.17
2018-05-29T18:48:48.460Z,26.09
2018-05-29T18:51:53.604Z,26.02
2018-05-29T18:54:59.722Z,25.93
2018-05-29T18:58:05.634Z,25.83
2018-05-29T19:01:11.676Z,25.75
2018-05-29T19:04:17.408Z,25.67
2018-05-29T19:07:23.376Z,25.58
2018-05-29T19:10:28.877Z,25.49
2018-05-29T19:13:34.776Z,25.42
2018-05-29T19:16:39.856Z,25.33
2018-05-29T19:19:44.781Z,25.25
2018-05-29T19:22:51.401Z,25.15
2018-05-29T19:25:57.490Z,25.08
2018-05-29T19:29:03.041Z,24.98
2018-05-29T19:32:08.909Z,24.89
2018-05-29T19:35:13.863Z,24.81
2018-05-29T19:38:18.975Z,24.72
2018-05-29T19:41:24.405Z,24.63
2018-05-29T19:44:30.262Z,24.54
2018-05-29T19:47:36.237Z,24.46
2018-05-29T19:50:41.684Z,24.38
2018-05-29T19:53:47.089Z,24.30
2018-05-29T19:56:52.359Z,24.19
2018-05-29T19:59:57.295Z,24.13
2018-05-29T20:03:03.122Z,24.02
2018-05-29T20:06:08.324Z,23.95
2018-05-29T20:09:14.253Z,23.86
2018-05-29T20:12:19.814Z,23.77
2018-05-29T20:15:25.948Z,23.67
2018-05-29T20:18:31.398Z,23.60
2018-05-29T20:21:37.423Z,23.52
2018-05-29T20:24:43.469Z,23.45
2018-05-29T20:27:49.401Z,23.36
2018-05-29T20:30:55.341Z,23.29
2018-05-29T20:34:00.881Z,23.22
2018-05-29T20:37:06.330Z,23.17
2018-05-29T20:40:12.200Z,23.11
2018-05-29T20:43:18.160Z,23.06
2018-05-29T20:46:23.967Z,23.01
2018-05-29T20:49:29.724Z,22.96
2018-05-29T20:52:34.657Z,22.91
2018-05-29T20:55:40.013Z,22.87
2018-05-29T20:58:46.030Z,22.83
2018-05-29T21:01:51.276Z,22.79
2018-05-29T21:04:56.193Z,22.74
2018-05-29T21:08:02.084Z,22.69
2018-05-29T21:11:07.504Z,22.65
2018-05-29T21:14:12.478Z,22.61
2018-05-29T21:17:17.441Z,22.57
2018-05-29T21:20:23.280Z,22.52
2018-05-29T21:23:29.659Z,22.48
2018-05-29T21:26:34.585Z,22.44
2018-05-29T21:29:39.925Z,22.39
2018-05-29T21:32:44.869Z,22.35
2018-05-29T21:35:49.792Z,22.31
2018-05-29T21:38:54.722Z,22.26
2018-05-29T21:42:00.057Z,22.22
2018-05-29T21:45:05.005Z,22.17
2018-05-29T21:48:09.528Z,22.13
2018-05-29T21:51:15.176Z,22.09
2018-05-29T21:54:20.175Z,22.05
2018-05-29T21:57:26.328Z,22.01
2018-05-29T22:00:31.512Z,21.95
2018-05-29T22:03:36.431Z,21.91
2018-05-29T22:06:42.160Z,21.87
2018-05-29T22:09:47.691Z,21.82
2018-05-29T22:12:53.132Z,21.78
2018-05-29T22:15:58.952Z,21.74
2018-05-29T22:19:04.301Z,21.70
2018-05-29T22:22:10.137Z,21.64
2018-05-29T22:25:15.476Z,21.58
2018-05-29T22:28:20.650Z,21.54
2018-05-29T22:31:25.851Z,21.50
2018-05-29T22:34:32.072Z,21.46
2018-05-29T22:37:38.431Z,21.40
2018-05-29T22:40:43.977Z,21.36
2018-05-29T22:43:49.107Z,21.29
2018-05-29T22:46:54.544Z,21.25
2018-05-29T22:49:59.748Z,21.20
2018-05-29T22:53:05.117Z,21.17
2018-05-29T22:56:11.231Z,21.11
2018-05-29T22:59:16.565Z,21.05
2018-05-29T23:02:22.432Z,21.01
2018-05-29T23:05:27.360Z,20.95
2018-05-29T23:08:32.561Z,20.90
2018-05-29T23:11:37.492Z,20.84
2018-05-29T23:14:42.540Z,20.80
2018-05-29T23:17:47.469Z,20.78
2018-05-29T23:20:53.084Z,20.72
2018-05-29T23:23:59.209Z,20.67
2018-05-29T23:27:04.409Z,20.62
2018-05-29T23:30:09.623Z,20.57
2018-05-29T23:33:15.036Z,20.53
2018-05-29T23:36:20.245Z,20.48
2018-05-29T23:39:25.437Z,20.42
2018-05-29T23:42:31.761Z,20.41
2018-05-29T23:45:37.864Z,20.34
2018-05-29T23:48:43.972Z,20.33
2018-05-29T23:51:50.128Z,20.26
2018-05-29T23:54:55.905Z,20.25
2018-05-29T23:58:01.532Z,20.19
